Time;durP1;ratioP1;P1;durP2;ratioP2;P2;SDS_P1;SDS_P2;PMS_P1;PMS_P2;Temp;Humidity;BMP_temperature;BMP_pressure;BME280_temperature;BME280_humidity;BME280_pressure;Samples;Min_cycle;Max_cycle;Signal;HPM_P1;HPM_P2
2021/07/17 00:02:12;;;;;;;16.60;14.90;;;25.60;68.80;;;;;;5019316;28;20033;-88
2021/07/17 00:04:38;;;;;;;18.65;16.08;;;25.60;68.80;;;;;;5037070;28;20027;-87
2021/07/17 00:07:04;;;;;;;17.88;15.98;;;25.60;69.00;;;;;;5030604;28;20010;-87
2021/07/17 00:09:30;;;;;;;17.02;15.23;;;25.50;69.10;;;;;;5020051;28;20192;-88
2021/07/17 00:11:56;;;;;;;18.75;15.65;;;25.50;69.10;;;;;;5017398;28;20493;-86
2021/07/17 00:14:34;;;;;;;18.15;15.35;;;25.50;69.30;;;;;;4991347;28;20468;-87
2021/07/17 00:17:00;;;;;;;18.88;14.95;;;25.50;69.30;;;;;;5016370;28;20387;-86
2021/07/17 00:19:26;;;;;;;17.25;15.00;;;25.50;69.50;;;;;;5002107;28;20022;-87
2021/07/17 00:21:52;;;;;;;18.80;15.40;;;25.40;69.50;;;;;;5018990;28;20034;-88
2021/07/17 00:24:18;;;;;;;17.20;15.52;;;25.40;69.60;;;;;;5018390;28;20101;-88
2021/07/17 00:26:44;;;;;;;17.08;15.35;;;25.40;69.70;;;;;;5018016;28;20029;-88
2021/07/17 00:29:11;;;;;;;16.77;14.98;;;25.40;69.80;;;;;;5001826;28;20056;-87
2021/07/17 00:31:37;;;;;;;16.92;15.18;;;25.30;69.90;;;;;;5002281;28;20152;-88
2021/07/17 00:34:02;;;;;;;19.05;16.80;;;25.30;70.00;;;;;;5003922;28;20030;-87
2021/07/17 00:36:28;;;;;;;16.02;14.32;;;25.30;70.00;;;;;;4999939;28;20026;-88
2021/07/17 00:38:54;;;;;;;16.70;15.07;;;25.30;70.10;;;;;;4994529;28;20014;-87
2021/07/17 00:41:20;;;;;;;18.55;15.68;;;25.30;70.20;;;;;;4999579;28;20033;-87
2021/07/17 00:43:47;;;;;;;18.02;16.02;;;25.30;70.10;;;;;;5017474;28;20029;-87
2021/07/17 00:46:13;;;;;;;17.25;15.65;;;25.20;70.20;;;;;;5015405;28;20025;-87
2021/07/17 00:48:39;;;;;;;16.98;14.85;;;25.20;70.20;;;;;;5018685;28;20022;-85
2021/07/17 00:51:05;;;;;;;18.42;15.07;;;25.10;70.30;;;;;;5002146;28;20029;-85
2021/07/17 00:53:31;;;;;;;16.90;14.77;;;25.10;70.30;;;;;;5017369;28;20032;-87
2021/07/17 00:56:00;;;;;;;20.05;15.50;;;25.10;70.60;;;;;;5017727;28;20595;-86
2021/07/17 00:58:30;;;;;;;18.67;16.00;;;25.10;70.50;;;;;;5029328;28;20046;-85
2021/07/17 01:00:58;;;;;;;17.42;14.35;;;25.10;70.80;;;;;;5009927;28;20194;-86
2021/07/17 01:03:26;;;;;;;19.02;16.45;;;25.10;70.80;;;;;;5019008;28;20021;-87
2021/07/17 01:05:52;;;;;;;17.67;15.38;;;25.10;70.80;;;;;;4999033;28;20037;-87
2021/07/17 01:08:20;;;;;;;19.02;15.07;;;25.10;71.60;;;;;;4989991;28;20010;-89
2021/07/17 01:10:47;;;;;;;18.90;14.75;;;25.10;70.90;;;;;;5019863;28;20029;-90
2021/07/17 01:13:13;;;;;;;18.70;16.17;;;25.10;70.70;;;;;;5019079;28;20076;-89
2021/07/17 01:15:39;;;;;;;20.38;14.77;;;25.10;70.70;;;;;;4988794;28;20029;-89
2021/07/17 01:18:05;;;;;;;19.60;15.23;;;25.10;70.80;;;;;;5021631;28;20026;-88
2021/07/17 01:20:32;;;;;;;16.60;14.88;;;25.10;71.70;;;;;;5006823;28;20446;-89
2021/07/17 01:22:58;;;;;;;20.38;15.75;;;25.10;71.90;;;;;;5024140;28;20057;-89
2021/07/17 01:25:31;;;;;;;21.40;15.73;;;25.00;72.10;;;;;;5025827;28;20026;-88
2021/07/17 01:27:58;;;;;;;22.10;16.02;;;25.10;72.20;;;;;;5033129;28;20026;-89
2021/07/17 01:30:34;;;;;;;22.15;15.88;;;25.00;72.40;;;;;;5017941;28;20015;-88
2021/07/17 01:33:00;;;;;;;18.77;16.02;;;25.00;71.90;;;;;;5010745;28;20414;-90
2021/07/17 01:35:26;;;;;;;17.58;14.75;;;25.00;72.00;;;;;;5015929;28;20069;-88
2021/07/17 01:37:52;;;;;;;16.10;14.35;;;25.00;72.00;;;;;;5008743;28;20034;-89
2021/07/17 01:40:19;;;;;;;21.25;15.48;;;25.00;72.50;;;;;;5006738;28;20018;-88
2021/07/17 01:42:46;;;;;;;17.58;15.85;;;24.90;73.40;;;;;;5012978;28;20031;-89
2021/07/17 01:45:22;;;;;;;20.20;17.20;;;25.00;73.20;;;;;;5008386;28;20069;-89
2021/07/17 01:47:48;;;;;;;21.05;16.90;;;25.00;73.30;;;;;;5034103;28;20022;-88
2021/07/17 01:50:14;;;;;;;24.08;18.27;;;24.90;73.90;;;;;;5036264;28;20054;-89
2021/07/17 01:52:40;;;;;;;19.10;16.27;;;24.90;73.90;;;;;;5026435;28;20089;-90
2021/07/17 01:55:08;;;;;;;21.33;17.02;;;24.90;73.50;;;;;;5029078;28;20084;-88
2021/07/17 01:57:35;;;;;;;20.52;16.70;;;25.00;73.40;;;;;;5024976;28;20093;-89
2021/07/17 02:00:02;;;;;;;18.90;15.90;;;25.00;74.10;;;;;;5014191;28;20036;-87
2021/07/17 02:02:27;;;;;;;23.02;16.67;;;25.00;73.30;;;;;;5015753;28;20026;-90
2021/07/17 02:04:53;;;;;;;18.40;16.48;;;25.00;73.20;;;;;;5031873;28;20121;-85
2021/07/17 02:07:19;;;;;;;21.63;16.85;;;25.00;73.10;;;;;;5028966;28;20120;-86
2021/07/17 02:09:45;;;;;;;18.02;15.27;;;25.00;73.10;;;;;;5014781;28;20049;-86
2021/07/17 02:12:11;;;;;;;17.40;15.73;;;25.00;73.20;;;;;;5014930;28;20038;-87
2021/07/17 02:14:38;;;;;;;22.30;17.27;;;25.00;73.30;;;;;;5010734;28;20046;-88
2021/07/17 02:17:04;;;;;;;;;;;25.00;73.30;;;;;;5021924;28;20030;-87
2021/07/17 02:19:30;;;;;;;24.80;16.52;;;25.00;72.60;;;;;;5029002;28;19905;-88
2021/07/17 02:21:56;;;;;;;21.92;17.67;;;25.00;73.40;;;;;;5032905;28;20082;-89
2021/07/17 02:24:22;;;;;;;20.50;16.02;;;25.10;73.30;;;;;;5030939;28;20039;-89
2021/07/17 02:26:49;;;;;;;20.67;17.25;;;25.10;73.40;;;;;;5029452;28;20022;-89
2021/07/17 02:29:16;;;;;;;21.02;15.75;;;25.10;73.30;;;;;;5016889;28;20108;-88
2021/07/17 02:31:42;;;;;;;22.98;15.77;;;25.10;73.00;;;;;;5019041;28;20466;-89
2021/07/17 02:34:11;;;;;;;18.33;16.45;;;25.20;72.80;;;;;;5018128;28;20022;-89
2021/07/17 02:36:38;;;;;;;19.60;17.50;;;25.20;72.60;;;;;;5014540;28;20037;-89
2021/07/17 02:39:05;;;;;;;22.08;16.25;;;25.30;72.70;;;;;;5014561;28;20022;-90
2021/07/17 02:41:31;;;;;;;20.80;15.93;;;25.30;72.50;;;;;;5015477;28;20037;-89
2021/07/17 02:43:57;;;;;;;19.80;16.73;;;25.30;72.40;;;;;;5004255;28;20050;-88
2021/07/17 02:46:23;;;;;;;18.45;15.75;;;25.30;71.90;;;;;;4999769;28;20073;-89
2021/07/17 02:48:49;;;;;;;18.65;16.38;;;25.40;72.10;;;;;;5016046;28;20018;-87
2021/07/17 02:51:15;;;;;;;18.50;16.60;;;25.40;72.50;;;;;;5014889;28;20108;-87
2021/07/17 02:53:41;;;;;;;18.27;16.45;;;25.40;72.50;;;;;;5013859;28;20112;-89
2021/07/17 02:56:07;;;;;;;18.75;16.85;;;25.50;72.30;;;;;;5015677;28;20493;-87
2021/07/17 02:58:33;;;;;;;19.80;17.80;;;25.60;72.50;;;;;;5015552;28;20040;-89
2021/07/17 03:00:59;;;;;;;21.48;16.42;;;25.70;72.20;;;;;;5018109;28;20018;-86
2021/07/17 03:03:25;;;;;;;22.02;17.58;;;25.80;72.00;;;;;;5021625;28;20071;-88
2021/07/17 03:05:51;;;;;;;22.95;17.27;;;25.80;71.70;;;;;;5026789;28;20028;-89
2021/07/17 03:08:21;;;;;;;21.52;17.05;;;25.90;71.40;;;;;;5033382;28;20116;-89
2021/07/17 03:10:48;;;;;;;17.42;15.45;;;25.90;71.20;;;;;;5025646;28;20006;-88
2021/07/17 03:13:14;;;;;;;19.98;17.10;;;26.00;71.10;;;;;;5025573;28;20034;-88
2021/07/17 03:15:41;;;;;;;21.75;17.60;;;26.00;70.80;;;;;;5019281;28;20038;-87
2021/07/17 03:18:07;;;;;;;20.70;17.75;;;26.10;70.80;;;;;;5036582;28;20018;-88
2021/07/17 03:20:33;;;;;;;19.50;16.73;;;26.10;70.50;;;;;;5007275;28;20033;-88
2021/07/17 03:22:59;;;;;;;24.55;17.45;;;26.10;70.60;;;;;;5026686;28;20030;-88
2021/07/17 03:25:25;;;;;;;19.52;16.48;;;26.10;70.70;;;;;;5041904;28;20049;-88
2021/07/17 03:27:51;;;;;;;25.90;18.42;;;26.10;70.50;;;;;;5020469;28;20038;-88
2021/07/17 03:30:17;;;;;;;22.90;17.55;;;26.20;70.60;;;;;;5022608;28;20030;-87
2021/07/17 03:32:43;;;;;;;25.10;17.73;;;26.20;70.50;;;;;;5021565;28;20034;-87
2021/07/17 03:35:09;;;;;;;19.80;17.73;;;26.30;70.60;;;;;;5026542;28;20022;-86
2021/07/17 03:37:35;;;;;;;22.67;17.38;;;26.30;70.50;;;;;;5013923;28;20022;-87
2021/07/17 03:40:03;;;;;;;20.60;18.48;;;26.40;70.00;;;;;;5029283;28;20064;-85
2021/07/17 03:42:29;;;;;;;20.15;17.58;;;26.40;70.00;;;;;;5023331;28;20026;-87
2021/07/17 03:44:55;;;;;;;20.00;18.02;;;26.50;69.80;;;;;;5005428;28;20025;-86
2021/07/17 03:47:21;;;;;;;19.47;17.67;;;26.60;69.70;;;;;;5016840;28;20056;-88
2021/07/17 03:49:47;;;;;;;22.90;17.25;;;26.60;69.60;;;;;;5022896;28;20446;-90
2021/07/17 03:52:14;;;;;;;21.52;19.23;;;26.60;69.40;;;;;;5023188;28;20034;-87
2021/07/17 03:54:39;;;;;;;21.58;17.35;;;26.70;69.40;;;;;;5008185;28;20021;-87
2021/07/17 03:57:05;;;;;;;20.58;17.75;;;26.80;69.20;;;;;;5024098;28;20037;-87
2021/07/17 03:59:32;;;;;;;23.67;17.58;;;26.80;68.80;;;;;;5021005;28;20113;-87
2021/07/17 04:01:58;;;;;;;21.50;17.13;;;26.90;68.20;;;;;;5025137;28;20033;-85
2021/07/17 04:04:24;;;;;;;22.50;18.45;;;26.90;68.20;;;;;;5018092;28;20467;-87
2021/07/17 04:06:50;;;;;;;21.50;17.98;;;26.90;68.10;;;;;;5019540;28;20030;-89
2021/07/17 04:09:16;;;;;;;21.80;17.30;;;27.00;68.10;;;;;;5021517;28;20021;-87
2021/07/17 04:11:42;;;;;;;18.75;16.85;;;27.00;67.90;;;;;;5001833;28;20037;-86
2021/07/17 04:14:08;;;;;;;22.42;17.88;;;27.10;67.90;;;;;;5026897;28;20041;-87
2021/07/17 04:16:34;;;;;;;25.60;18.88;;;27.20;68.20;;;;;;5019480;28;20029;-86
2021/07/17 04:18:59;;;;;;;25.10;18.80;;;27.20;67.40;;;;;;5038913;28;19997;-85
2021/07/17 04:21:25;;;;;;;20.98;18.33;;;27.30;67.30;;;;;;5033277;28;20010;-88
2021/07/17 04:23:51;;;;;;;22.40;18.27;;;27.30;67.00;;;;;;5039550;28;20029;-88
2021/07/17 04:26:17;;;;;;;20.10;17.85;;;27.30;66.70;;;;;;5037669;28;20025;-87
2021/07/17 04:28:43;;;;;;;20.13;17.92;;;27.40;66.80;;;;;;5041246;28;20085;-87
2021/07/17 04:31:09;;;;;;;22.27;17.25;;;27.50;66.50;;;;;;5019009;28;20033;-87
2021/07/17 04:33:35;;;;;;;22.95;18.15;;;27.60;66.30;;;;;;5036743;28;20383;-86
2021/07/17 04:36:01;;;;;;;23.77;16.65;;;27.70;66.30;;;;;;5036998;28;20375;-86
2021/07/17 04:38:27;;;;;;;22.90;18.27;;;27.80;66.20;;;;;;5019296;28;20036;-87
2021/07/17 04:40:53;;;;;;;20.27;16.85;;;27.90;65.70;;;;;;5018674;28;20471;-86
2021/07/17 04:43:18;;;;;;;20.02;17.08;;;27.90;65.40;;;;;;5018900;28;20024;-87
2021/07/17 04:45:44;;;;;;;19.10;17.10;;;28.00;65.00;;;;;;5036726;28;20576;-87
2021/07/17 04:48:10;;;;;;;18.98;16.85;;;28.10;64.70;;;;;;5018905;28;20021;-87
2021/07/17 04:50:39;;;;;;;19.83;16.45;;;28.20;64.20;;;;;;5037266;28;20026;-87
2021/07/17 04:53:06;;;;;;;18.13;16.42;;;28.30;63.30;;;;;;5037321;28;20147;-87
2021/07/17 04:55:32;;;;;;;18.97;16.97;;;28.40;63.50;;;;;;5037165;28;20352;-88
2021/07/17 04:57:58;;;;;;;21.33;17.40;;;28.50;63.50;;;;;;5017389;28;20443;-88
2021/07/17 05:00:24;;;;;;;22.08;17.90;;;28.50;63.60;;;;;;5037965;28;20030;-90
2021/07/17 05:02:53;;;;;;;20.52;17.08;;;28.50;63.70;;;;;;5020018;28;20029;-88
2021/07/17 05:05:20;;;;;;;20.13;18.13;;;28.60;64.00;;;;;;5038117;28;20101;-88
2021/07/17 05:07:46;;;;;;;18.33;16.42;;;28.70;63.80;;;;;;5017694;28;20418;-89
2021/07/17 05:10:14;;;;;;;23.98;17.52;;;28.80;63.30;;;;;;5033950;28;20017;-87
2021/07/17 05:12:40;;;;;;;21.17;18.40;;;29.20;62.80;;;;;;5023725;28;20045;-88
2021/07/17 05:15:11;;;;;;;18.73;16.77;;;30.00;61.20;;;;;;5038037;28;20046;-87
2021/07/17 05:17:38;;;;;;;17.52;15.73;;;30.90;58.70;;;;;;5019121;28;20029;-89
2021/07/17 05:20:06;;;;;;;19.33;17.05;;;31.60;56.50;;;;;;5033496;28;20017;-89
2021/07/17 05:22:32;;;;;;;18.92;15.38;;;32.40;53.80;;;;;;5021658;28;20040;-89
2021/07/17 05:24:58;;;;;;;17.83;16.08;;;33.00;52.40;;;;;;5019951;28;20033;-87
2021/07/17 05:27:24;;;;;;;20.38;16.25;;;33.50;51.00;;;;;;5020629;28;20055;-89
2021/07/17 05:29:50;;;;;;;17.27;15.63;;;34.10;49.60;;;;;;5041916;28;20073;-87
2021/07/17 05:32:16;;;;;;;23.33;16.33;;;34.80;49.20;;;;;;5040810;28;20478;-87
2021/07/17 05:34:43;;;;;;;18.00;15.80;;;35.30;48.60;;;;;;5038605;28;20278;-86
2021/07/17 05:37:10;;;;;;;18.33;15.55;;;36.10;61.30;;;;;;5018209;28;20037;-90
2021/07/17 05:39:36;;;;;;;16.80;15.05;;;36.40;46.40;;;;;;5032502;28;20423;-89
2021/07/17 05:42:03;;;;;;;16.23;14.73;;;37.10;44.70;;;;;;5016186;28;20021;-88
2021/07/17 05:44:30;;;;;;;16.70;14.50;;;37.70;43.50;;;;;;5041367;28;20026;-89
2021/07/17 05:46:56;;;;;;;21.50;14.52;;;38.20;42.70;;;;;;5031051;28;20029;-90
2021/07/17 05:49:22;;;;;;;19.00;15.48;;;;;;;;;;5040722;28;20029;-88
2021/07/17 05:51:48;;;;;;;14.15;12.77;;;38.20;41.50;;;;;;5037435;28;20029;-87
2021/07/17 05:54:15;;;;;;;15.88;13.82;;;38.30;41.30;;;;;;5027637;28;20056;-88
2021/07/17 05:56:41;;;;;;;17.45;14.95;;;38.70;41.10;;;;;;5036202;28;20150;-87
2021/07/17 05:59:07;;;;;;;22.67;20.58;;;39.00;40.40;;;;;;5021001;28;20089;-88
2021/07/17 06:01:33;;;;;;;15.70;12.77;;;39.70;39.20;;;;;;5021822;28;20075;-87
2021/07/17 06:04:01;;;;;;;13.90;12.60;;;39.90;38.50;;;;;;5018656;28;20424;-87
2021/07/17 06:06:27;;;;;;;14.27;12.75;;;39.80;38.00;;;;;;5018899;28;20031;-88
2021/07/17 06:08:54;;;;;;;19.13;12.40;;;40.30;37.50;;;;;;5034821;28;20021;-86
2021/07/17 06:11:19;;;;;;;15.27;12.50;;;40.70;37.10;;;;;;5023740;28;20043;-88
2021/07/17 06:13:45;;;;;;;14.60;12.48;;;41.60;36.40;;;;;;5037798;28;20550;-87
2021/07/17 06:16:12;;;;;;;11.77;10.52;;;42.60;35.10;;;;;;5035776;28;20561;-85
2021/07/17 06:18:38;;;;;;;14.93;11.98;;;43.10;33.90;;;;;;5035147;28;20056;-86
2021/07/17 06:21:04;;;;;;;11.65;10.52;;;43.00;33.20;;;;;;5035258;28;20020;-85
2021/07/17 06:23:30;;;;;;;11.43;10.27;;;43.10;32.90;;;;;;5034768;28;20030;-86
2021/07/17 06:25:56;;;;;;;11.32;10.00;;;43.60;33.00;;;;;;5047861;28;20040;-86
2021/07/17 06:28:22;;;;;;;;;;;44.20;32.30;;;;;;5037249;28;20044;-87
2021/07/17 06:30:48;;;;;;;11.02;9.93;;;44.60;33.50;;;;;;5037936;28;20370;-89
2021/07/17 06:33:14;;;;;;;;;;;44.80;30.90;;;;;;5040643;28;20038;-92
2021/07/17 06:35:40;;;;;;;8.85;8.02;;;45.00;32.00;;;;;;5044487;28;19893;-88
2021/07/17 06:38:06;;;;;;;;;;;;;;;;;;4983265;28;20034;-89
2021/07/17 06:40:32;;;;;;;10.52;7.80;;;45.60;30.20;;;;;;4973263;28;19913;-89
2021/07/17 06:42:58;;;;;;;12.38;8.10;;;46.20;29.70;;;;;;4978718;28;20035;-89
2021/07/17 06:45:24;;;;;;;11.15;8.45;;;46.60;28.80;;;;;;4989378;28;20031;-89
2021/07/17 06:47:50;;;;;;;12.40;8.35;;;46.50;28.90;;;;;;4965291;28;20035;-88
2021/07/17 06:50:18;;;;;;;10.80;8.15;;;46.20;28.50;;;;;;4976776;28;20114;-88
2021/07/17 06:52:44;;;;;;;9.68;8.88;;;46.00;29.40;;;;;;4978468;28;20039;-88
2021/07/17 06:55:11;;;;;;;9.05;8.18;;;46.20;29.40;;;;;;4995386;28;20106;-89
2021/07/17 06:57:41;;;;;;;12.07;7.55;;;46.50;28.80;;;;;;4992415;28;20103;-86
2021/07/17 07:00:09;;;;;;;9.77;8.25;;;46.50;27.80;;;;;;4970806;28;20059;-86
2021/07/17 07:02:36;;;;;;;7.78;6.97;;;46.10;28.30;;;;;;4972071;28;20030;-86
2021/07/17 07:05:04;;;;;;;8.27;7.47;;;46.10;28.60;;;;;;4974095;28;20031;-86
2021/07/17 07:07:30;;;;;;;9.15;7.60;;;46.70;28.10;;;;;;4973801;28;20033;-85
2021/07/17 07:09:56;;;;;;;9.65;8.60;;;47.00;27.70;;;;;;5025506;28;20045;-87
2021/07/17 07:12:21;;;;;;;11.48;8.50;;;46.90;28.10;;;;;;5033570;28;20065;-86
2021/07/17 07:14:47;;;;;;;7.60;6.90;;;47.30;28.10;;;;;;5033281;28;20056;-86
2021/07/17 07:17:13;;;;;;;9.38;7.28;;;47.70;27.60;;;;;;5033153;28;20029;-86
2021/07/17 07:19:39;;;;;;;9.50;7.40;;;48.00;27.20;;;;;;5015505;28;20025;-86
2021/07/17 07:22:05;;;;;;;9.07;8.13;;;48.00;27.40;;;;;;5034283;28;20021;-86
2021/07/17 07:24:31;;;;;;;9.70;8.68;;;47.60;27.50;;;;;;5033046;28;20033;-88
2021/07/17 07:26:58;;;;;;;9.05;7.93;;;47.60;27.50;;;;;;5033970;28;20029;-87
2021/07/17 07:29:24;;;;;;;8.93;7.93;;;47.70;27.60;;;;;;5016761;28;20553;-88
2021/07/17 07:31:52;;;;;;;7.60;6.78;;;48.10;27.40;;;;;;5015415;28;20099;-88
2021/07/17 07:34:20;;;;;;;9.15;8.35;;;48.10;27.20;;;;;;5033450;28;20387;-87
2021/07/17 07:36:46;;;;;;;11.00;9.02;;;48.30;27.00;;;;;;5015461;28;20036;-86
2021/07/17 07:39:13;;;;;;;9.45;8.45;;;47.70;27.40;;;;;;5021231;28;20462;-85
2021/07/17 07:41:38;;;;;;;10.63;8.70;;;47.30;27.60;;;;;;5033616;28;20538;-85
2021/07/17 07:44:05;;;;;;;12.68;9.32;;;47.10;27.70;;;;;;5037328;28;20049;-86
2021/07/17 07:46:32;;;;;;;9.65;8.68;;;47.50;27.90;;;;;;5033952;28;20083;-85
2021/07/17 07:48:59;;;;;;;9.43;8.02;;;48.20;27.60;;;;;;5018818;28;20017;-85
2021/07/17 07:51:25;;;;;;;10.85;9.27;;;48.30;27.60;;;;;;5035818;28;20041;-85
2021/07/17 07:53:51;;;;;;;10.27;9.23;;;48.20;27.60;;;;;;5032732;28;20029;-85
2021/07/17 07:56:17;;;;;;;11.15;10.07;;;48.50;27.80;;;;;;5034020;28;20080;-85
2021/07/17 07:58:43;;;;;;;11.77;10.45;;;49.00;27.70;;;;;;5030499;28;20022;-88
2021/07/17 08:01:09;;;;;;;11.05;9.95;;;48.60;27.30;;;;;;5030348;28;20021;-86
2021/07/17 08:03:35;;;;;;;11.43;10.52;;;47.70;27.90;;;;;;5016166;28;20036;-86
2021/07/17 08:06:00;;;;;;;13.48;11.27;;;47.30;28.20;;;;;;5036533;28;20030;-87
2021/07/17 08:08:26;;;;;;;12.98;11.68;;;47.00;28.70;;;;;;5038682;28;20103;-87
2021/07/17 08:10:52;;;;;;;12.48;11.25;;;46.70;29.10;;;;;;5040286;28;20125;-86
2021/07/17 08:13:18;;;;;;;13.43;9.95;;;46.70;29.30;;;;;;5036353;28;20055;-85
2021/07/17 08:15:44;;;;;;;12.30;11.13;;;46.60;29.10;;;;;;5036516;28;20069;-84
2021/07/17 08:18:11;;;;;;;12.13;11.02;;;45.40;29.20;;;;;;5042627;28;20029;-84
2021/07/17 08:20:40;;;;;;;13.35;12.15;;;43.40;30.40;;;;;;5032268;28;20105;-84
2021/07/17 08:23:06;;;;;;;13.70;11.90;;;41.40;32.20;;;;;;5021147;28;20026;-85
2021/07/17 08:25:32;;;;;;;14.07;12.65;;;40.00;34.70;;;;;;5017003;28;20026;-86
2021/07/17 08:27:58;;;;;;;13.70;12.52;;;38.90;35.30;;;;;;5035412;28;20025;-87
2021/07/17 08:30:24;;;;;;;13.63;12.35;;;38.80;36.10;;;;;;5033706;28;20037;-87
2021/07/17 08:32:55;;;;;;;14.52;13.10;;;40.20;35.20;;;;;;5015158;28;20435;-86
2021/07/17 08:35:21;;;;;;;13.60;12.35;;;42.20;33.60;;;;;;5033099;28;20030;-91
2021/07/17 08:37:48;;;;;;;13.48;12.18;;;44.20;32.00;;;;;;5025432;28;20049;-92
2021/07/17 08:40:14;;;;;;;13.25;11.35;;;44.70;30.50;;;;;;5015473;28;20095;-85
2021/07/17 08:42:44;;;;;;;;;;;44.00;30.60;;;;;;5017494;28;20056;-88
2021/07/17 08:45:14;;;;;;;15.50;11.52;;;42.20;31.30;;;;;;5028860;28;20023;-87
2021/07/17 08:47:42;;;;;;;12.07;11.07;;;41.60;32.40;;;;;;5024361;28;20026;-90
2021/07/17 08:50:15;;;;;;;13.65;12.27;;;41.70;33.00;;;;;;5012406;28;20026;-86
2021/07/17 08:52:41;;;;;;;11.45;10.30;;;42.70;32.20;;;;;;5015373;28;20386;-89
2021/07/17 08:55:09;;;;;;;10.48;9.57;;;44.00;30.60;;;;;;5028984;28;20025;-87
2021/07/17 08:57:40;;;;;;;12.35;11.15;;;43.80;30.10;;;;;;5030532;28;20029;-87
2021/07/17 09:00:14;;;;;;;12.95;11.68;;;42.20;31.10;;;;;;5012640;28;20025;-85
2021/07/17 09:02:44;;;;;;;13.82;12.50;;;40.70;32.80;;;;;;5030397;28;20057;-85
2021/07/17 09:05:15;;;;;;;12.25;11.23;;;41.10;33.90;;;;;;5017450;28;20076;-86
2021/07/17 09:07:44;;;;;;;11.88;10.98;;;41.90;32.10;;;;;;5003026;28;20069;-84
2021/07/17 09:10:45;;;;;;;11.77;10.25;;;40.90;31.90;;;;;;5016075;28;20083;-85
2021/07/17 09:13:17;;;;;;;12.57;11.27;;;41.20;32.00;;;;;;5020523;28;20042;-84
2021/07/17 09:15:57;;;;;;;12.63;11.52;;;42.20;31.80;;;;;;5018834;28;20053;-85
2021/07/17 09:18:37;;;;;;;12.05;10.52;;;43.60;31.20;;;;;;5028138;28;20475;-85
2021/07/17 09:21:13;;;;;;;11.23;10.05;;;45.00;30.10;;;;;;5029121;28;20032;-85
2021/07/17 09:23:57;;;;;;;12.20;11.13;;;45.50;29.70;;;;;;5036442;28;20487;-84
2021/07/17 09:26:32;;;;;;;13.55;12.25;;;43.90;30.10;;;;;;5029428;28;20068;-88
2021/07/17 09:29:11;;;;;;;18.50;12.70;;;42.30;31.80;;;;;;5027936;28;20041;-86
2021/07/17 09:31:49;;;;;;;16.60;12.85;;;40.30;33.50;;;;;;5035432;28;20048;-84
2021/07/17 09:34:19;;;;;;;15.20;13.70;;;38.40;36.00;;;;;;5033482;28;20103;-86
2021/07/17 09:36:58;;;;;;;13.25;12.10;;;37.40;37.50;;;;;;5032979;28;20104;-79
2021/07/17 09:39:45;;;;;;;13.93;12.57;;;37.30;37.30;;;;;;5026691;28;20032;-81
2021/07/17 09:42:17;;;;;;;14.35;12.82;;;36.90;37.90;;;;;;4995415;28;20041;-83
2021/07/17 09:44:49;;;;;;;12.73;11.63;;;36.70;38.10;;;;;;5013013;28;20026;-84
2021/07/17 09:47:23;;;;;;;13.40;12.00;;;37.70;37.10;;;;;;5014782;28;20490;-82
2021/07/17 09:49:50;;;;;;;12.00;10.90;;;39.80;35.00;;;;;;5014498;28;20498;-82
2021/07/17 09:52:21;;;;;;;11.88;10.77;;;40.80;33.40;;;;;;4998992;28;20344;-86
2021/07/17 09:55:08;;;;;;;13.38;12.13;;;42.00;32.70;;;;;;4999018;28;20049;-87
2021/07/17 09:57:35;;;;;;;11.52;10.35;;;42.50;31.60;;;;;;5004709;28;20057;-86
2021/07/17 10:00:06;;;;;;;11.35;10.25;;;42.20;30.90;;;;;;5011695;28;20389;-84
2021/07/17 10:02:35;;;;;;;11.90;10.93;;;42.30;31.50;;;;;;5039015;28;20584;-85
2021/07/17 10:05:04;;;;;;;13.55;12.45;;;41.80;31.90;;;;;;5013934;28;20029;-83
2021/07/17 10:07:30;;;;;;;16.25;14.73;;;40.60;33.20;;;;;;5027804;28;20119;-84
2021/07/17 10:09:56;;;;;;;13.65;12.35;;;39.40;34.70;;;;;;5021074;28;20104;-83
2021/07/17 10:12:32;;;;;;;14.02;12.57;;;38.50;35.70;;;;;;5010293;28;20045;-84
2021/07/17 10:14:58;;;;;;;13.93;12.73;;;37.70;35.80;;;;;;5016887;28;20049;-82
2021/07/17 10:17:34;;;;;;;13.98;12.77;;;37.30;37.40;;;;;;5014398;28;20025;-83
2021/07/17 10:20:04;;;;;;;13.55;12.27;;;36.80;37.60;;;;;;5006645;28;20509;-83
2021/07/17 10:22:30;;;;;;;14.10;12.80;;;36.40;37.50;;;;;;4996509;28;20029;-83
2021/07/17 10:24:56;;;;;;;13.45;12.18;;;36.00;37.50;;;;;;5014671;28;20022;-85
2021/07/17 10:27:23;;;;;;;15.15;13.57;;;35.90;38.20;;;;;;5013786;28;20026;-81
2021/07/17 10:29:50;;;;;;;;;;;36.10;38.40;;;;;;5014582;28;20021;-82
2021/07/17 10:32:16;;;;;;;14.43;13.18;;;36.30;37.80;;;;;;5014232;28;19919;-82
2021/07/17 10:34:44;;;;;;;13.50;12.30;;;36.30;38.00;;;;;;5010790;28;20069;-84
2021/07/17 10:37:18;;;;;;;13.57;12.23;;;36.20;38.20;;;;;;5017426;28;20088;-83
2021/07/17 10:40:12;;;;;;;15.13;13.63;;;36.00;39.20;;;;;;5004438;28;20010;-82
2021/07/17 10:42:45;;;;;;;16.08;13.40;;;35.80;38.60;;;;;;5010778;28;20037;-83
2021/07/17 10:45:12;;;;;;;13.45;12.05;;;35.60;39.00;;;;;;5013305;28;20025;-80
2021/07/17 10:47:41;;;;;;;13.07;11.77;;;35.40;39.50;;;;;;5014203;28;20029;-83
2021/07/17 10:50:13;;;;;;;12.45;10.93;;;35.10;38.40;;;;;;4995614;28;20028;-81
2021/07/17 10:52:42;;;;;;;12.30;11.05;;;34.90;38.60;;;;;;5012888;28;20040;-80
2021/07/17 10:55:23;;;;;;;12.43;11.32;;;34.80;38.80;;;;;;5012851;28;20025;-83
2021/07/17 10:57:49;;;;;;;13.02;11.68;;;34.70;39.00;;;;;;4995509;28;20482;-80
2021/07/17 11:00:41;;;;;;;;;;;34.40;39.00;;;;;;5014361;28;20080;-84
2021/07/17 11:03:29;;;;;;;29.38;13.30;;;34.10;41.40;;;;;;5011236;28;19988;-82
2021/07/17 11:05:55;;;;;;;19.95;13.18;;;33.30;45.30;;;;;;5012787;28;20029;-83
2021/07/17 11:08:35;;;;;;;21.98;11.60;;;32.60;46.90;;;;;;5015701;28;20048;-81
2021/07/17 11:11:21;;;;;;;18.67;10.93;;;31.90;48.10;;;;;;5012852;28;20062;-83
2021/07/17 11:13:47;;;;;;;17.95;12.18;;;31.20;49.90;;;;;;5011753;28;20096;-83
2021/07/17 11:16:39;;;;;;;20.50;11.35;;;30.50;51.80;;;;;;4996409;28;20030;-83
2021/07/17 11:19:18;;;;;;;15.48;9.75;;;29.90;52.50;;;;;;5001229;28;20018;-83
2021/07/17 11:21:45;;;;;;;13.98;10.38;;;29.50;53.40;;;;;;5004111;28;20471;-84
2021/07/17 11:24:11;;;;;;;;;;;29.10;54.00;;;;;;5018691;28;20463;-82
2021/07/17 11:26:38;;;;;;;13.15;9.23;;;28.80;54.10;;;;;;5023523;28;19912;-82
2021/07/17 11:29:06;;;;;;;13.30;10.10;;;28.40;55.60;;;;;;5016637;28;20032;-82
2021/07/17 11:31:39;;;;;;;17.05;10.77;;;28.10;56.80;;;;;;5016609;28;20043;-82
2021/07/17 11:34:14;;;;;;;15.55;10.88;;;28.00;58.00;;;;;;4999177;28;20021;-82
2021/07/17 11:37:10;;;;;;;14.25;11.57;;;27.80;58.50;;;;;;5016753;28;20530;-83
2021/07/17 11:39:40;;;;;;;13.48;10.38;;;27.70;58.80;;;;;;4997161;28;20380;-83
2021/07/17 11:42:08;;;;;;;13.45;11.55;;;27.60;60.40;;;;;;5002544;28;20119;-81
2021/07/17 11:44:39;;;;;;;13.82;12.02;;;27.50;60.90;;;;;;5017553;28;20137;-83
2021/07/17 11:47:17;;;;;;;13.57;11.93;;;27.40;61.70;;;;;;5005273;28;20014;-82
2021/07/17 11:49:45;;;;;;;13.82;12.38;;;27.40;61.90;;;;;;5017038;28;20025;-81
2021/07/17 11:52:17;;;;;;;14.02;11.88;;;27.20;62.60;;;;;;5016166;28;20034;-81
2021/07/17 11:54:46;;;;;;;19.58;12.77;;;27.00;63.20;;;;;;5016160;28;20032;-83
2021/07/17 11:57:23;;;;;;;14.00;12.63;;;27.00;64.00;;;;;;5016068;28;20030;-82
2021/07/17 12:00:21;;;;;;;;;;;27.00;64.50;;;;;;5016682;28;20022;-81
2021/07/17 12:02:56;;;;;;;16.67;12.98;;;26.90;63.30;;;;;;5009928;28;19992;-82
2021/07/17 12:05:22;;;;;;;14.32;12.52;;;26.80;65.30;;;;;;5028103;28;20029;-81
2021/07/17 12:07:49;;;;;;;13.93;12.23;;;26.70;65.40;;;;;;5032151;28;20021;-79
2021/07/17 12:10:18;;;;;;;16.92;12.40;;;26.70;65.50;;;;;;5013085;28;20512;-80
2021/07/17 12:12:46;;;;;;;12.95;11.57;;;26.70;65.30;;;;;;4999435;28;20416;-85
2021/07/17 12:15:27;;;;;;;13.30;11.13;;;26.80;64.90;;;;;;5034158;28;20133;-85
2021/07/17 12:17:56;;;;;;;14.60;12.02;;;26.70;65.60;;;;;;5037062;28;20033;-82
2021/07/17 12:20:36;;;;;;;18.90;13.68;;;26.60;67.00;;;;;;5036548;28;20041;-82
2021/07/17 12:23:12;;;;;;;18.30;13.75;;;26.50;67.40;;;;;;5036712;28;20040;-86
2021/07/17 12:25:40;;;;;;;18.93;12.77;;;26.50;68.00;;;;;;5037220;28;20018;-85
2021/07/17 12:28:13;;;;;;;21.83;12.88;;;26.60;68.90;;;;;;5018619;28;20259;-78
2021/07/17 12:30:42;;;;;;;17.63;15.60;;;26.60;68.90;;;;;;5035886;28;20055;-85
2021/07/17 12:33:33;;;;;;;17.40;14.45;;;26.60;68.90;;;;;;5016907;28;20030;-86
2021/07/17 12:36:02;;;;;;;17.80;13.98;;;26.60;69.00;;;;;;5030583;28;20028;-82
2021/07/17 12:38:30;;;;;;;19.20;14.93;;;26.50;70.10;;;;;;5037795;28;20479;-86
2021/07/17 12:41:08;;;;;;;22.17;16.25;;;26.40;70.90;;;;;;5037262;28;20037;-86